Time;durP1;ratioP1;P1;durP2;ratioP2;P2;SDS_P1;SDS_P2;PMS_P1;PMS_P2;Temp;Humidity;BMP_temperature;BMP_pressure;BME280_temperature;BME280_humidity;BME280_pressure;Samples;Min_cycle;Max_cycle;Signal;HPM_P1;HPM_P2
2021/06/12 00:00:08;;;;;;;6.47;3.42;;;;;;;18.33;67.85;98849.05;1711420;83;21520;-60
2021/06/12 00:02:34;;;;;;;6.00;3.70;;;;;;;18.36;67.65;98844.55;1652719;86;21042;-59
2021/06/12 00:05:00;;;;;;;3.70;3.22;;;;;;;18.32;67.53;98846.09;1684161;85;21027;-60
2021/06/12 00:07:27;;;;;;;3.60;3.30;;;;;;;18.32;67.34;98850.13;1685427;85;21178;-60
2021/06/12 00:09:53;;;;;;;3.20;3.00;;;;;;;18.26;67.18;98848.88;1681871;83;21022;-59
2021/06/12 00:12:20;;;;;;;3.42;3.12;;;;;;;18.23;66.95;98847.48;1679138;85;22222;-60
2021/06/12 00:14:48;;;;;;;7.80;3.35;;;;;;;18.19;66.81;98854.40;1681115;83;20936;-59
2021/06/12 00:17:14;;;;;;;3.77;3.40;;;;;;;18.11;66.84;98857.44;1684517;85;20983;-60
2021/06/12 00:19:42;;;;;;;4.00;3.12;;;;;;;18.00;67.02;98858.24;1684418;85;21177;-60
2021/06/12 00:22:08;;;;;;;3.52;2.87;;;;;;;17.94;67.23;98852.98;1652473;86;21464;-60
2021/06/12 00:24:34;;;;;;;3.45;3.15;;;;;;;17.86;67.52;98854.94;1681098;85;20923;-59
2021/06/12 00:27:01;;;;;;;5.08;3.15;;;;;;;17.79;67.71;98850.20;1685134;85;21073;-59
2021/06/12 00:29:27;;;;;;;3.30;3.00;;;;;;;17.68;67.92;98848.82;1671952;83;20987;-59
2021/06/12 00:31:53;;;;;;;3.67;3.37;;;;;;;17.59;68.29;98856.94;1662822;83;21146;-59
2021/06/12 00:34:20;;;;;;;5.85;3.08;;;;;;;17.49;68.57;98855.31;1646702;85;21466;-59
2021/06/12 00:36:46;;;;;;;4.62;3.33;;;;;;;17.38;68.86;98847.50;1660570;83;21111;-59
2021/06/12 00:39:59;;;;;;;;;;;;;;;;;;;;;
2021/06/12 00:42:21;;;;;;;3.10;2.67;;;;;;;17.17;69.55;98846.14;1659932;83;21178;-61
2021/06/12 00:45:21;;;;;;;3.62;3.33;;;;;;;17.14;69.73;98847.94;1641951;86;21801;-65
2021/06/12 00:47:51;;;;;;;5.45;3.35;;;;;;;17.09;70.00;98851.00;1585879;85;21597;-60
2021/06/12 00:50:21;;;;;;;4.28;3.20;;;;;;;17.05;70.16;98848.48;1643940;85;21045;-60
2021/06/12 00:53:07;;;;;;;3.55;3.22;;;;;;;17.01;70.33;98848.11;1657452;85;21024;-61
2021/06/12 00:55:45;;;;;;;3.47;3.17;;;;;;;17.03;70.31;98850.03;1674242;83;21031;-67
2021/06/12 00:58:20;;;;;;;5.80;3.77;;;;;;;17.04;70.31;98852.20;1731928;81;20992;-61
2021/06/12 01:00:46;;;;;;;5.90;3.27;;;;;;;16.94;70.58;98856.78;1726737;81;20854;-59
2021/06/12 01:03:12;;;;;;;6.42;3.10;;;;;;;16.89;70.90;98861.19;1717500;81;21530;-61
2021/06/12 01:05:39;;;;;;;4.53;3.70;;;;;;;16.83;71.19;98853.50;1715298;81;20976;-58
2021/06/12 01:08:06;;;;;;;5.90;3.60;;;;;;;16.79;71.46;98854.19;1714937;81;21443;-60
2021/06/12 01:10:32;;;;;;;3.85;3.15;;;;;;;16.74;71.75;98842.75;1731741;81;21153;-61
2021/06/12 01:13:04;;;;;;;3.37;3.08;;;;;;;16.68;72.03;98840.98;1715369;81;20909;-59
2021/06/12 01:15:49;;;;;;;3.80;3.40;;;;;;;16.68;72.13;98842.33;1715189;81;21088;-62
2021/06/12 01:18:14;;;;;;;4.33;3.30;;;;;;;16.63;72.30;98847.55;1714520;81;21551;-61
2021/06/12 01:21:14;;;;;;;3.77;3.08;;;;;;;16.59;72.46;98849.03;1719898;82;21589;-61
2021/06/12 01:24:31;;;;;;;4.03;3.20;;;;;;;16.64;72.54;98849.17;1716046;81;21096;-59
2021/06/12 01:27:15;;;;;;;3.17;2.87;;;;;;;16.60;72.73;98850.16;1715262;81;21506;-62
2021/06/12 01:30:03;;;;;;;3.50;3.08;;;;;;;16.58;72.89;98854.91;1731956;81;21044;-62
2021/06/12 01:32:37;;;;;;;5.03;3.00;;;;;;;16.57;73.07;98857.32;1717156;81;20960;-60
2021/06/12 01:35:12;;;;;;;3.25;2.95;;;;;;;16.56;73.13;98862.89;1715307;81;21490;-60
2021/06/12 01:37:41;;;;;;;4.17;3.30;;;;;;;16.56;73.20;98864.23;1715078;81;21836;-60
2021/06/12 01:40:09;;;;;;;4.50;3.00;;;;;;;16.58;73.09;98863.52;1715225;81;21452;-59
2021/06/12 01:42:37;;;;;;;5.20;3.40;;;;;;;16.61;73.05;98863.04;1727614;81;21502;-58
2021/06/12 01:45:06;;;;;;;3.40;3.10;;;;;;;16.65;72.95;98865.59;1715132;81;21573;-59
2021/06/12 01:47:32;;;;;;;5.03;3.25;;;;;;;16.69;72.60;98861.41;1715162;81;20989;-58
2021/06/12 01:50:00;;;;;;;4.53;4.12;;;;;;;16.69;72.44;98860.06;1715294;81;21765;-58
2021/06/12 01:52:27;;;;;;;4.17;3.17;;;;;;;16.68;72.42;98862.47;1704313;82;21635;-58
2021/06/12 01:54:53;;;;;;;3.65;3.35;;;;;;;16.71;72.39;98862.54;1744717;81;21088;-60
2021/06/12 01:57:19;;;;;;;4.03;3.67;;;;;;;16.76;72.30;98856.80;1742484;80;20992;-61
2021/06/12 01:59:48;;;;;;;4.20;3.52;;;;;;;16.86;72.13;98857.60;1691783;82;21144;-62
2021/06/12 02:02:15;;;;;;;6.97;3.90;;;;;;;16.90;72.00;98860.13;1670301;83;21219;-60
2021/06/12 02:04:42;;;;;;;4.05;3.70;;;;;;;16.89;72.04;98857.98;1640497;83;21041;-62
2021/06/12 02:07:09;;;;;;;6.30;4.25;;;;;;;16.80;72.34;98859.32;1634403;86;21022;-59
2021/06/12 02:09:37;;;;;;;5.05;4.42;;;;;;;16.74;72.63;98862.09;1659269;85;21448;-61
2021/06/12 02:12:06;;;;;;;5.40;4.55;;;;;;;16.68;72.91;98857.61;1658607;83;21509;-62
2021/06/12 02:14:33;;;;;;;3.90;3.50;;;;;;;16.61;73.19;98852.30;1645005;85;21061;-62
2021/06/12 02:17:01;;;;;;;5.00;4.47;;;;;;;16.60;73.33;98849.34;1644466;85;21022;-60
2021/06/12 02:19:27;;;;;;;6.42;3.77;;;;;;;16.62;73.44;98852.61;1669571;83;20983;-62
2021/06/12 02:21:55;;;;;;;4.30;4.00;;;;;;;16.62;73.55;98860.66;1658326;83;21114;-60
2021/06/12 02:24:21;;;;;;;5.53;3.70;;;;;;;16.57;73.77;98859.17;1660607;83;21177;-60
2021/06/12 02:26:51;;;;;;;7.10;3.62;;;;;;;16.49;73.99;98862.95;1631329;85;21119;-59
2021/06/12 02:29:16;;;;;;;3.92;3.62;;;;;;;16.48;74.22;98863.16;1659154;85;21460;-60
2021/06/12 02:31:46;;;;;;;3.85;3.55;;;;;;;16.48;74.37;98861.81;1659252;85;20955;-60
2021/06/12 02:34:12;;;;;;;3.35;3.05;;;;;;;16.48;74.53;98871.20;1658923;85;21082;-59
2021/06/12 02:36:40;;;;;;;4.03;3.70;;;;;;;16.53;74.64;98875.42;1659211;85;20989;-60
2021/06/12 02:39:07;;;;;;;4.33;3.87;;;;;;;16.55;74.71;98871.49;1659108;85;21127;-62
2021/06/12 02:41:34;;;;;;;3.60;3.30;;;;;;;16.61;74.81;98869.75;1659249;85;21563;-60
2021/06/12 02:44:00;;;;;;;4.60;4.20;;;;;;;16.67;74.70;98868.88;1646042;85;20946;-60
2021/06/12 02:46:29;;;;;;;7.00;4.58;;;;;;;16.73;74.61;98873.36;1659225;85;21010;-60
2021/06/12 02:49:02;;;;;;;5.75;5.10;;;;;;;16.79;74.49;98872.44;1659110;85;21151;-60
2021/06/12 02:51:29;;;;;;;6.70;6.10;;;;;;;16.84;74.33;98873.92;1659414;85;21132;-62
2021/06/12 02:53:56;;;;;;;5.50;5.10;;;;;;;16.90;74.20;98874.90;1686062;83;21595;-61
2021/06/12 02:56:22;;;;;;;6.75;5.92;;;;;;;16.97;74.00;98875.11;1656061;83;20915;-62
2021/06/12 02:58:48;;;;;;;5.62;5.12;;;;;;;17.05;73.81;98874.01;1716245;82;21021;-61
2021/06/12 03:01:15;;;;;;;5.22;4.83;;;;;;;17.10;73.62;98868.23;1657893;86;21524;-61
2021/06/12 03:03:41;;;;;;;6.08;5.47;;;;;;;17.13;73.53;98865.09;1662218;85;21167;-60
2021/06/12 03:06:07;;;;;;;5.90;5.00;;;;;;;17.17;73.28;98864.95;1657650;85;21076;-61
2021/06/12 03:08:44;;;;;;;5.58;4.83;;;;;;;17.15;73.41;98867.02;1665023;85;21519;-59
2021/06/12 03:11:10;;;;;;;10.90;5.42;;;;;;;17.09;73.82;98877.36;1715382;82;21010;-59
2021/06/12 03:13:38;;;;;;;7.58;4.80;;;;;;;17.04;74.32;98875.05;1698237;82;21084;-60
2021/06/12 03:16:05;;;;;;;5.53;3.90;;;;;;;17.01;74.31;98884.38;1716547;82;21156;-60
2021/06/12 03:18:31;;;;;;;3.85;3.50;;;;;;;17.04;74.37;98878.56;1658002;86;21539;-59
2021/06/12 03:20:59;;;;;;;4.03;3.72;;;;;;;17.11;74.28;98877.11;1686200;83;21027;-58
2021/06/12 03:23:27;;;;;;;6.20;3.70;;;;;;;17.10;74.30;98874.16;1684363;83;20941;-59
2021/06/12 03:25:54;;;;;;;4.33;3.27;;;;;;;17.20;74.21;98873.91;1657788;86;20978;-58
2021/06/12 03:28:20;;;;;;;4.97;3.70;;;;;;;17.35;73.97;98876.18;1658382;83;21085;-60
2021/06/12 03:30:47;;;;;;;4.10;3.80;;;;;;;17.51;73.79;98874.72;1640304;86;21430;-58
2021/06/12 03:33:14;;;;;;;4.78;3.72;;;;;;;17.68;73.44;98880.58;1682696;83;21046;-58
2021/06/12 03:35:41;;;;;;;3.85;3.45;;;;;;;17.82;72.97;98883.38;1660655;85;21060;-59
2021/06/12 03:38:07;;;;;;;3.22;3.02;;;;;;;18.00;72.52;98878.42;1686354;83;20935;-59
2021/06/12 03:40:34;;;;;;;3.22;2.92;;;;;;;18.27;72.13;98887.70;1657862;86;21840;-60
2021/06/12 03:43:02;;;;;;;3.35;3.05;;;;;;;18.68;71.39;98883.25;1685063;83;21616;-60
2021/06/12 03:45:30;;;;;;;3.00;2.70;;;;;;;19.22;70.45;98882.77;1652771;85;21549;-58
2021/06/12 03:48:00;;;;;;;4.15;3.02;;;;;;;19.85;68.91;98889.36;1686349;83;21101;-60
2021/06/12 03:50:27;;;;;;;4.25;2.60;;;;;;;20.43;67.13;98888.98;1670773;83;21093;-58
2021/06/12 03:52:54;;;;;;;3.47;3.17;;;;;;;20.89;64.73;98881.78;1655173;85;21162;-61
2021/06/12 03:55:20;;;;;;;3.87;3.10;;;;;;;21.32;63.12;98885.05;1684537;83;20916;-59
2021/06/12 03:57:48;;;;;;;3.47;2.90;;;;;;;21.68;61.65;98881.34;1686171;83;21022;-61
2021/06/12 04:00:16;;;;;;;4.35;3.00;;;;;;;22.07;60.75;98884.17;1716151;82;21012;-60
2021/06/12 04:02:43;;;;;;;4.17;3.22;;;;;;;22.48;58.63;98877.97;1716212;82;21017;-59
2021/06/12 04:05:10;;;;;;;3.40;3.10;;;;;;;22.83;57.37;98872.50;1714323;82;21156;-59
2021/06/12 04:07:38;;;;;;;3.22;2.92;;;;;;;23.24;56.31;98871.05;1716390;82;20906;-59
2021/06/12 04:10:08;;;;;;;5.03;3.27;;;;;;;23.63;54.71;98867.91;1674972;84;20957;-61
2021/06/12 04:12:36;;;;;;;5.17;3.37;;;;;;;23.97;53.56;98864.95;1704168;82;21053;-60
2021/06/12 04:15:06;;;;;;;6.30;3.45;;;;;;;24.33;52.77;98869.84;1714316;82;20926;-60
2021/06/12 04:17:32;;;;;;;3.40;3.05;;;;;;;24.65;51.62;98869.52;1716411;82;21144;-61
2021/06/12 04:19:58;;;;;;;6.08;3.15;;;;;;;24.81;51.05;98866.53;1657737;86;21049;-59
2021/06/12 04:22:27;;;;;;;2.70;2.50;;;;;;;24.85;50.51;98862.69;1686179;83;21449;-59
2021/06/12 04:24:54;;;;;;;4.05;2.67;;;;;;;24.75;50.04;98870.85;1683815;83;21063;-61
2021/06/12 04:27:20;;;;;;;3.30;3.00;;;;;;;24.61;50.18;98870.64;1685909;85;21102;-58
2021/06/12 04:29:46;;;;;;;3.77;2.77;;;;;;;24.48;50.32;98869.28;1640462;85;21473;-57
2021/06/12 04:32:13;;;;;;;3.17;2.92;;;;;;;24.67;50.28;98870.05;1658285;83;21086;-61
2021/06/12 04:34:39;;;;;;;5.20;2.52;;;;;;;25.06;49.74;98862.34;1664822;83;21002;-61
2021/06/12 04:37:08;;;;;;;3.50;2.72;;;;;;;25.42;49.05;98858.88;1659138;83;21518;-61
2021/06/12 04:39:34;;;;;;;3.10;2.80;;;;;;;25.82;48.35;98860.56;1659174;83;21519;-61
2021/06/12 04:42:01;;;;;;;3.62;2.67;;;;;;;26.23;47.32;98855.61;1659061;83;21155;-60
2021/06/12 04:44:27;;;;;;;4.33;2.85;;;;;;;26.55;46.21;98855.03;1665974;83;20975;-62
2021/06/12 04:46:54;;;;;;;3.27;2.98;;;;;;;26.78;45.61;98851.53;1653492;86;20970;-61
2021/06/12 04:49:20;;;;;;;3.65;3.30;;;;;;;26.97;44.47;98855.13;1675622;85;21493;-62
2021/06/12 04:51:47;;;;;;;2.80;2.45;;;;;;;27.05;44.09;98854.49;1636317;86;21107;-60
2021/06/12 04:54:13;;;;;;;2.95;2.37;;;;;;;27.17;43.88;98847.23;1652630;85;21138;-61
2021/06/12 04:56:42;;;;;;;3.15;2.80;;;;;;;27.29;43.39;98849.00;1649789;86;21013;-61
2021/06/12 04:59:09;;;;;;;7.28;3.67;;;;;;;27.43;43.06;98849.36;1645889;83;20985;-62
2021/06/12 05:01:36;;;;;;;3.72;2.75;;;;;;;27.65;42.69;98852.88;1641398;87;20968;-63
2021/06/12 05:04:03;;;;;;;3.75;2.87;;;;;;;27.92;42.08;98852.98;1639605;87;21073;-60
2021/06/12 05:06:29;;;;;;;3.55;3.22;;;;;;;28.13;41.68;98851.56;1641886;87;21160;-63
2021/06/12 05:08:56;;;;;;;3.47;3.05;;;;;;;28.30;41.12;98851.56;1637072;87;21083;-60
2021/06/12 05:11:22;;;;;;;3.08;2.87;;;;;;;28.39;41.18;98847.04;1641019;86;21101;-56
2021/06/12 05:13:49;;;;;;;3.33;2.87;;;;;;;28.60;40.76;98845.55;1640664;87;21095;-60
2021/06/12 05:16:16;;;;;;;4.90;2.72;;;;;;;28.79;40.54;98842.17;1640634;87;21011;-60
2021/06/12 05:18:44;;;;;;;2.80;2.40;;;;;;;28.98;40.18;98838.78;1641860;87;21185;-61
2021/06/12 05:21:14;;;;;;;2.62;2.42;;;;;;;29.22;39.38;98838.59;1640409;87;21592;-58
2021/06/12 05:23:40;;;;;;;2.60;2.40;;;;;;;29.29;38.76;98832.12;1641817;87;21080;-60
2021/06/12 05:26:07;;;;;;;2.98;2.67;;;;;;;29.26;38.69;98836.29;1641040;87;21048;-62
2021/06/12 05:28:35;;;;;;;4.83;2.50;;;;;;;29.34;38.65;98834.20;1673090;85;21134;-62
2021/06/12 05:31:01;;;;;;;3.30;3.00;;;;;;;29.63;38.30;98830.25;1648462;85;21179;-58
2021/06/12 05:33:30;;;;;;;3.20;2.37;;;;;;;29.81;38.07;98835.59;1677149;85;20953;-58
2021/06/12 05:35:58;;;;;;;4.10;2.80;;;;;;;30.11;37.63;98828.56;1644500;85;21028;-62
2021/06/12 05:38:27;;;;;;;3.02;2.70;;;;;;;30.45;37.18;98822.48;1674443;85;21114;-60
2021/06/12 05:40:55;;;;;;;3.47;3.00;;;;;;;30.76;36.80;98823.82;1642056;87;21157;-58
2021/06/12 05:43:26;;;;;;;3.02;2.70;;;;;;;31.05;36.21;98825.48;1650803;85;21211;-58
2021/06/12 05:45:52;;;;;;;4.33;2.58;;;;;;;31.48;35.66;98823.62;1675171;85;21019;-60
2021/06/12 05:48:18;;;;;;;5.30;2.80;;;;;;;31.96;34.74;98831.70;1671515;85;20924;-60
2021/06/12 05:50:45;;;;;;;5.35;3.05;;;;;;;32.53;33.55;98832.27;1673836;85;21012;-60
2021/06/12 05:53:12;;;;;;;7.62;3.47;;;;;;;32.98;32.47;98833.13;1644022;85;20994;-60
2021/06/12 05:55:39;;;;;;;8.38;4.40;;;;;;;33.32;31.69;98824.69;1670686;85;21148;-61
2021/06/12 05:58:06;;;;;;;7.12;3.50;;;;;;;33.70;31.03;98822.63;1674343;85;21505;-60
2021/06/12 06:00:32;;;;;;;7.85;3.40;;;;;;;34.05;30.70;98822.52;1677073;84;21062;-60
2021/06/12 06:02:59;;;;;;;6.72;3.45;;;;;;;34.37;30.33;98820.11;1667086;85;21630;-57
2021/06/12 06:05:25;;;;;;;9.45;2.90;;;;;;;34.72;29.62;98823.55;1641709;87;21027;-59
2021/06/12 06:07:52;;;;;;;10.60;4.35;;;;;;;35.00;29.17;98824.22;1671971;85;21162;-57
2021/06/12 06:10:19;;;;;;;8.05;3.17;;;;;;;35.27;29.08;98818.02;1675209;85;21029;-57
2021/06/12 06:12:46;;;;;;;3.72;2.70;;;;;;;35.57;28.36;98817.96;1643201;85;21093;-61
2021/06/12 06:15:15;;;;;;;5.08;2.37;;;;;;;35.76;27.76;98818.71;1674434;84;21576;-61
2021/06/12 06:17:42;;;;;;;4.75;2.20;;;;;;;35.87;27.06;98815.67;1669871;84;21698;-59
2021/06/12 06:20:10;;;;;;;5.62;2.22;;;;;;;35.85;26.53;98820.16;1700078;83;21138;-59
2021/06/12 06:22:36;;;;;;;4.60;1.90;;;;;;;35.67;26.99;98817.47;1704952;82;21001;-57
2021/06/12 06:25:05;;;;;;;4.37;2.02;;;;;;;35.83;27.00;98818.91;1671919;84;21505;-64
2021/06/12 06:27:33;;;;;;;5.10;2.70;;;;;;;35.98;26.73;98819.52;1696130;82;21029;-66
2021/06/12 06:29:59;;;;;;;4.80;1.85;;;;;;;36.00;26.49;98817.23;1694787;82;21018;-62
2021/06/12 06:32:26;;;;;;;2.72;1.95;;;;;;;36.09;26.43;98819.85;1647884;87;21236;-63
2021/06/12 06:34:54;;;;;;;5.28;2.75;;;;;;;36.13;26.23;98821.58;1672020;84;20967;-62
2021/06/12 06:37:21;;;;;;;2.20;1.80;;;;;;;35.99;25.91;98818.95;1649541;85;20994;-62
2021/06/12 06:39:47;;;;;;;2.60;1.92;;;;;;;35.89;25.92;98821.66;1667338;85;20980;-67
2021/06/12 06:42:14;;;;;;;3.45;2.00;;;;;;;35.83;26.08;98821.67;1631265;85;21061;-64
2021/06/12 06:44:40;;;;;;;3.58;2.20;;;;;;;35.74;26.26;98825.99;1658952;84;21932;-64
2021/06/12 06:47:07;;;;;;;2.85;2.02;;;;;;;35.71;26.51;98821.16;1650903;84;20924;-64
2021/06/12 06:49:34;;;;;;;2.55;2.00;;;;;;;35.70;26.44;98824.25;1635757;87;20950;-60
2021/06/12 06:52:04;;;;;;;2.87;1.85;;;;;;;35.85;26.35;98818.00;1665646;85;21058;-60
2021/06/12 06:54:31;;;;;;;5.10;4.00;;;;;;;35.89;26.07;98821.08;1671716;85;21090;-59
2021/06/12 06:56:58;;;;;;;4.42;3.17;;;;;;;35.80;26.20;98823.75;1675462;85;21150;-59
2021/06/12 06:59:25;;;;;;;5.15;4.65;;;;;;;35.77;26.37;98825.27;1645176;83;21030;-59
2021/06/12 07:01:51;;;;;;;4.65;2.60;;;;;;;35.65;26.55;98826.70;1672000;85;20983;-62
2021/06/12 07:04:17;;;;;;;3.60;2.00;;;;;;;35.71;26.41;98830.03;1668982;85;20948;-60
2021/06/12 07:06:45;;;;;;;3.27;1.85;;;;;;;35.77;26.30;98827.25;1638689;85;21544;-60
2021/06/12 07:09:11;;;;;;;2.42;2.22;;;;;;;35.87;26.24;98826.75;1676469;85;21141;-60
2021/06/12 07:11:39;;;;;;;8.30;2.20;;;;;;;36.15;26.01;98824.80;1674400;85;20964;-57
2021/06/12 07:14:05;;;;;;;3.10;2.35;;;;;;;36.46;25.31;98826.22;1668655;85;21019;-61
2021/06/12 07:16:31;;;;;;;5.08;3.17;;;;;;;36.68;25.47;98825.41;1676926;85;21579;-60
2021/06/12 07:18:58;;;;;;;2.67;2.10;;;;;;;36.97;24.98;98824.98;1671624;85;21031;-61
2021/06/12 07:21:25;;;;;;;2.55;1.67;;;;;;;37.38;24.63;98825.73;1668069;85;21078;-62
2021/06/12 07:23:52;;;;;;;3.92;2.12;;;;;;;37.82;23.94;98817.98;1668116;85;21523;-62
2021/06/12 07:26:18;;;;;;;4.15;1.52;;;;;;;38.17;23.53;98817.30;1646556;85;21017;-59
2021/06/12 07:28:45;;;;;;;2.00;1.75;;;;;;;38.61;23.47;98812.20;1675384;85;21009;-60
2021/06/12 07:31:11;;;;;;;4.45;2.42;;;;;;;38.87;22.45;98811.45;1675771;85;21055;-62
2021/06/12 07:33:38;;;;;;;8.03;3.12;;;;;;;39.19;22.18;98809.97;1645478;87;21806;-62
2021/06/12 07:36:05;;;;;;;5.45;2.65;;;;;;;39.18;21.86;98808.39;1671541;85;20957;-59
2021/06/12 07:38:32;;;;;;;5.87;2.70;;;;;;;39.26;21.77;98814.27;1673232;85;21603;-57
2021/06/12 07:40:58;;;;;;;6.45;2.40;;;;;;;39.45;21.54;98806.36;1642565;85;21074;-59
2021/06/12 07:43:25;;;;;;;3.15;2.47;;;;;;;39.41;21.50;98805.52;1672381;85;21033;-61
2021/06/12 07:45:52;;;;;;;2.20;1.70;;;;;;;39.65;21.33;98807.86;1670768;84;21220;-62
2021/06/12 07:48:18;;;;;;;2.33;1.82;;;;;;;39.80;20.83;98808.24;1642952;87;21611;-70
2021/06/12 07:50:45;;;;;;;2.15;1.77;;;;;;;40.05;20.09;98802.39;1674781;85;21021;-62
2021/06/12 07:53:12;;;;;;;3.98;1.70;;;;;;;40.16;20.13;98808.66;1668065;84;21119;-59
2021/06/12 07:55:39;;;;;;;;;;;;;;;40.28;19.91;98807.82;1645144;87;35884;-59
2021/06/12 07:58:05;;;;;;;4.70;1.98;;;;;;;40.15;20.26;98805.69;1676076;85;21873;-59
2021/06/12 08:00:32;;;;;;;3.45;1.85;;;;;;;40.20;20.44;98806.14;1657367;85;21087;-59
2021/06/12 08:02:58;;;;;;;2.35;1.52;;;;;;;40.19;19.80;98807.90;1671168;85;20963;-58
2021/06/12 08:05:26;;;;;;;1.57;1.47;;;;;;;40.08;19.80;98803.61;1672078;85;21001;-59
2021/06/12 08:07:54;;;;;;;2.10;1.87;;;;;;;40.17;19.42;98801.92;1670223;85;20932;-61
2021/06/12 08:10:20;;;;;;;2.02;1.57;;;;;;;40.18;19.53;98805.70;1672521;85;22688;-58
2021/06/12 08:12:47;;;;;;;4.87;2.00;;;;;;;40.14;19.42;98800.70;1676265;85;20944;-59
2021/06/12 08:15:14;;;;;;;4.75;1.95;;;;;;;39.83;19.56;98808.88;1676227;85;21055;-57
2021/06/12 08:17:41;;;;;;;1.35;1.27;;;;;;;39.65;19.64;98805.08;1677551;85;21113;-60
2021/06/12 08:20:09;;;;;;;1.52;1.42;;;;;;;39.23;19.86;98804.47;1672979;85;21512;-59
2021/06/12 08:22:35;;;;;;;1.20;1.10;;;;;;;39.14;19.95;98800.53;1664730;85;21142;-58
2021/06/12 08:25:04;;;;;;;1.50;1.00;;;;;;;39.01;19.95;98795.55;1659984;83;21686;-59
2021/06/12 08:27:31;;;;;;;1.40;1.32;;;;;;;39.04;20.26;98792.84;1676630;85;20900;-61
2021/06/12 08:29:57;;;;;;;1.42;1.30;;;;;;;39.17;20.23;98797.59;1720114;81;21587;-58
2021/06/12 08:32:23;;;;;;;1.62;1.30;;;;;;;39.21;20.16;98793.73;1727370;83;21085;-61
2021/06/12 08:34:50;;;;;;;1.37;1.27;;;;;;;39.08;20.11;98798.47;1729161;83;21142;-59
2021/06/12 08:37:16;;;;;;;2.12;1.52;;;;;;;38.98;20.27;98797.72;1728867;83;20978;-58
2021/06/12 08:39:43;;;;;;;2.40;1.35;;;;;;;38.92;20.24;98792.26;1721358;83;21622;-58
2021/06/12 08:42:09;;;;;;;1.90;1.20;;;;;;;38.78;19.57;98797.81;1722882;83;21004;-57
2021/06/12 08:44:37;;;;;;;1.60;1.40;;;;;;;38.67;19.69;98795.98;1727375;83;21872;-58
2021/06/12 08:47:04;;;;;;;6.30;1.60;;;;;;;38.73;20.25;98787.55;1725022;83;21139;-56
2021/06/12 08:49:31;;;;;;;4.12;1.00;;;;;;;38.82;20.48;98792.31;1719580;83;21050;-60
2021/06/12 08:51:58;;;;;;;2.98;1.20;;;;;;;38.73;19.97;98792.53;1722789;83;21069;-59
2021/06/12 08:54:26;;;;;;;1.00;1.00;;;;;;;38.61;19.56;98789.16;1722486;83;21140;-58
2021/06/12 08:56:53;;;;;;;5.42;1.32;;;;;;;38.52;19.25;98789.40;1724825;83;21049;-58
2021/06/12 08:59:20;;;;;;;1.35;1.25;;;;;;;38.63;19.28;98785.41;1727909;83;21163;-60
2021/06/12 09:01:47;;;;;;;1.62;1.32;;;;;;;38.72;19.20;98783.20;1715510;82;20945;-60
2021/06/12 09:04:34;;;;;;;1.55;1.42;;;;;;;38.74;19.24;98780.84;1702820;83;20963;-59
2021/06/12 09:07:22;;;;;;;2.77;1.12;;;;;;;38.79;19.48;98777.77;1688656;83;21071;-58
2021/06/12 09:09:50;;;;;;;1.17;1.05;;;;;;;38.82;19.52;98779.20;1676503;83;21392;-57
2021/06/12 09:12:17;;;;;;;1.95;1.10;;;;;;;38.65;19.97;98774.72;1695935;82;21088;-57
2021/06/12 09:15:11;;;;;;;2.55;1.20;;;;;;;38.12;20.23;98774.56;1711035;83;20918;-59
2021/06/12 09:17:47;;;;;;;1.92;1.47;;;;;;;37.46;20.92;98787.89;1704516;83;21487;-63
2021/06/12 09:20:31;;;;;;;1.95;1.50;;;;;;;36.78;22.02;98776.38;1710643;83;21008;-63
2021/06/12 09:23:17;;;;;;;2.20;1.40;;;;;;;36.27;22.48;98769.91;1713984;83;21523;-60
2021/06/12 09:25:48;;;;;;;1.17;1.07;;;;;;;35.85;22.66;98772.34;1702816;82;21173;-59
2021/06/12 09:28:15;;;;;;;2.83;1.20;;;;;;;35.40;22.97;98762.11;1670030;84;21013;-62
2021/06/12 09:30:43;;;;;;;2.90;1.07;;;;;;;35.08;23.20;98770.25;1701485;83;21024;-61
2021/06/12 09:33:09;;;;;;;1.52;1.37;;;;;;;34.83;23.45;98767.83;1702491;82;21507;-63
2021/06/12 09:35:42;;;;;;;1.65;1.00;;;;;;;34.53;23.64;98763.08;1710396;83;21025;-58
2021/06/12 09:38:28;;;;;;;1.55;1.07;;;;;;;34.32;24.23;98766.50;1651050;86;21790;-59
2021/06/12 09:40:55;;;;;;;1.82;1.32;;;;;;;33.99;23.85;98765.16;1664122;83;21011;-63
2021/06/12 09:43:30;;;;;;;0.98;0.98;;;;;;;33.69;24.38;98758.95;1677855;85;21038;-60
2021/06/12 09:45:57;;;;;;;1.25;1.10;;;;;;;33.52;24.56;98760.47;1679119;85;21619;-62
2021/06/12 09:48:23;;;;;;;1.40;1.30;;;;;;;33.30;25.09;98763.55;1669445;85;21082;-64
2021/06/12 09:51:08;;;;;;;4.20;1.07;;;;;;;33.16;25.53;98757.52;1658874;83;21308;-59
2021/06/12 09:53:48;;;;;;;2.27;1.07;;;;;;;33.11;25.49;98752.21;1672050;83;20974;-59
2021/06/12 09:56:15;;;;;;;0.98;0.95;;;;;;;33.00;25.63;98756.46;1682800;85;21117;-60
2021/06/12 09:58:41;;;;;;;1.05;1.00;;;;;;;32.92;25.59;98750.69;1684751;85;21055;-61
2021/06/12 10:01:11;;;;;;;1.80;1.70;;;;;;;32.86;25.55;98755.33;1684371;83;21049;-60
2021/06/12 10:03:38;;;;;;;1.52;1.10;;;;;;;32.80;25.75;98749.20;1736419;82;21166;-62
2021/06/12 10:06:24;;;;;;;1.22;1.20;;;;;;;32.76;25.48;98748.27;1733847;82;21017;-62
2021/06/12 10:08:51;;;;;;;1.77;1.07;;;;;;;32.82;25.80;98747.51;1731256;82;21532;-67
2021/06/12 10:11:21;;;;;;;1.00;1.00;;;;;;;32.79;25.19;98732.45;1729561;82;21018;-69
2021/06/12 10:13:48;;;;;;;1.22;1.12;;;;;;;32.81;25.23;98732.92;1735789;82;20989;-63
2021/06/12 10:16:15;;;;;;;1.80;1.45;;;;;;;32.82;25.63;98737.87;1683800;84;21823;-59
2021/06/12 10:18:45;;;;;;;4.47;1.42;;;;;;;32.82;25.99;98735.92;1693027;84;21582;-65
2021/06/12 10:21:13;;;;;;;2.50;1.37;;;;;;;32.84;26.35;98731.45;1667727;85;21046;-57
2021/06/12 10:23:40;;;;;;;2.92;1.32;;;;;;;32.84;26.86;98731.45;1685237;84;21048;-55
2021/06/12 10:26:09;;;;;;;1.17;0.85;;;;;;;32.81;26.42;98732.92;1663899;85;21053;-53
2021/06/12 10:28:36;;;;;;;2.67;0.85;;;;;;;32.71;25.70;98738.82;1694451;84;21173;-54
2021/06/12 10:31:14;;;;;;;1.15;1.05;;;;;;;32.58;25.12;98732.98;1664941;85;21022;-59
2021/06/12 10:33:43;;;;;;;3.00;1.27;;;;;;;32.49;25.11;98729.42;1674617;85;21614;-57
2021/06/12 10:36:27;;;;;;;1.17;0.90;;;;;;;32.34;25.78;98732.73;1678870;84;21001;-64
2021/06/12 10:38:56;;;;;;;1.32;1.10;;;;;;;32.25;25.58;98733.36;1699068;84;21085;-66
2021/06/12 10:41:31;;;;;;;2.05;0.93;;;;;;;32.21;25.87;98720.00;1671648;85;21145;-60
2021/06/12 10:44:00;;;;;;;1.87;0.90;;;;;;;32.12;26.14;98717.27;1671133;84;20965;-63
2021/06/12 10:46:29;;;;;;;1.30;1.20;;;;;;;32.02;25.88;98720.95;1695347;84;21042;-56
2021/06/12 10:48:58;;;;;;;1.82;1.17;;;;;;;31.93;26.23;98716.03;1672278;85;21105;-62
2021/06/12 10:51:36;;;;;;;3.50;1.52;;;;;;;31.80;26.57;98712.34;1669755;85;21014;-59
2021/06/12 10:56:47;;;;;;;2.52;1.15;;;;;;;31.81;27.06;98715.31;1703247;84;21014;-56
2021/06/12 10:59:14;;;;;;;2.00;1.20;;;;;;;31.80;26.88;98712.91;1678097;85;21067;-61
2021/06/12 11:02:08;;;;;;;2.67;1.10;;;;;;;31.70;26.80;98699.73;1630374;85;21167;-58
2021/06/12 11:05:10;;;;;;;2.10;1.00;;;;;;;31.63;26.89;98702.18;1661759;85;21063;-55
2021/06/12 11:07:39;;;;;;;1.25;1.15;;;;;;;31.65;26.80;98699.13;1633470;87;21161;-59
2021/06/12 11:10:18;;;;;;;4.60;1.30;;;;;;;31.65;26.75;98693.03;1663963;84;21031;-60
2021/06/12 11:12:52;;;;;;;2.65;1.40;;;;;;;31.60;26.92;98690.46;1673118;84;21018;-56
2021/06/12 11:15:27;;;;;;;2.87;1.27;;;;;;;31.60;27.63;98686.92;1666225;84;21451;-56
2021/06/12 11:18:23;;;;;;;3.65;2.00;;;;;;;31.59;27.28;98683.92;1670633;85;21026;-63
2021/06/12 11:21:08;;;;;;;2.83;1.47;;;;;;;31.46;28.02;98679.42;1670248;85;21165;-57
2021/06/12 11:23:48;;;;;;;4.75;2.33;;;;;;;31.40;28.36;98686.99;1671407;85;21549;-58
2021/06/12 11:26:15;;;;;;;1.70;1.20;;;;;;;31.27;26.98;98672.86;1659854;84;21015;-56
2021/06/12 11:28:42;;;;;;;1.30;1.20;;;;;;;31.14;26.79;98671.09;1674465;85;21079;-59
2021/06/12 11:31:33;;;;;;;3.10;1.35;;;;;;;31.06;26.86;98664.47;1639449;87;21467;-59
2021/06/12 11:34:24;;;;;;;1.95;1.20;;;;;;;31.06;27.36;98660.91;1662981;84;21173;-57
2021/06/12 11:37:15;;;;;;;2.05;1.20;;;;;;;31.05;27.36;98658.72;1667661;85;21435;-55
2021/06/12 11:39:51;;;;;;;1.37;1.27;;;;;;;31.03;28.18;98650.56;1656258;84;21047;-58
2021/06/12 11:42:17;;;;;;;4.50;1.40;;;;;;;31.02;28.83;98642.11;1659496;85;21064;-57
2021/06/12 11:44:44;;;;;;;4.00;1.50;;;;;;;30.96;28.40;98644.77;1673448;84;21074;-57
2021/06/12 11:47:10;;;;;;;5.20;1.67;;;;;;;30.92;29.08;98642.44;1676885;85;21136;-56